createdAt,value
2022-08-31T00:03:24.137Z,61.74
2022-08-31T00:08:44.854Z,62.19
2022-08-31T00:14:09.881Z,62.24
2022-08-31T00:19:33.856Z,62.02
2022-08-31T00:24:54.755Z,62.55
2022-08-31T00:30:15.966Z,62.50
2022-08-31T00:35:41.542Z,62.61
2022-08-31T00:41:02.592Z,62.43
2022-08-31T00:46:27.061Z,62.51
2022-08-31T00:51:52.302Z,62.88
2022-08-31T00:57:14.266Z,62.83
2022-08-31T01:02:35.594Z,63.19
2022-08-31T01:07:57.312Z,63.12
2022-08-31T01:13:18.516Z,63.45
2022-08-31T01:18:41.350Z,63.36
2022-08-31T01:24:03.697Z,63.69
2022-08-31T01:29:26.493Z,63.49
2022-08-31T01:34:47.750Z,63.57
2022-08-31T01:40:09.330Z,63.49
2022-08-31T01:45:30.421Z,63.64
2022-08-31T01:50:54.374Z,63.88
2022-08-31T01:56:37.354Z,63.47
2022-08-31T02:01:59.497Z,63.78
2022-08-31T02:07:21.250Z,63.74
2022-08-31T02:12:42.145Z,63.75
2022-08-31T02:18:02.807Z,64.15
2022-08-31T02:23:23.993Z,63.66
2022-08-31T02:28:44.634Z,63.82
2022-08-31T02:34:05.335Z,64.13
2022-08-31T02:39:26.466Z,64.25
2022-08-31T02:44:48.890Z,63.95
2022-08-31T02:50:10.176Z,64.49
2022-08-31T02:55:30.983Z,63.82
2022-08-31T03:00:52.430Z,64.16
2022-08-31T03:06:13.512Z,64.24
2022-08-31T03:11:34.485Z,64.26
2022-08-31T03:16:55.405Z,64.33
2022-08-31T03:22:16.059Z,64.24
2022-08-31T03:27:38.634Z,64.25
2022-08-31T03:33:02.874Z,64.51
2022-08-31T03:38:25.730Z,64.43
2022-08-31T03:43:46.404Z,64.13
2022-08-31T03:49:07.748Z,64.09
2022-08-31T03:54:29.172Z,64.12
2022-08-31T03:59:54.335Z,64.23
2022-08-31T04:05:15.185Z,64.40
2022-08-31T04:10:54.360Z,64.44
2022-08-31T04:16:28.062Z,64.64
2022-08-31T04:22:09.154Z,64.65
2022-08-31T04:27:41.402Z,64.71
2022-08-31T04:33:02.561Z,64.70
2022-08-31T04:38:23.479Z,64.90
2022-08-31T04:43:50.138Z,64.31
2022-08-31T04:49:14.669Z,64.21
2022-08-31T04:54:35.465Z,64.27
2022-08-31T04:59:56.048Z,64.84
2022-08-31T05:05:40.069Z,64.95
2022-08-31T05:11:09.295Z,65.03
2022-08-31T05:16:31.024Z,64.62
2022-08-31T05:21:52.096Z,64.36
2022-08-31T05:27:15.227Z,64.84
2022-08-31T05:32:36.052Z,65.03
2022-08-31T05:37:59.399Z,65.36
2022-08-31T05:43:21.316Z,65.12
2022-08-31T05:48:43.269Z,65.13
2022-08-31T05:54:14.846Z,65.35
2022-08-31T05:59:38.207Z,65.42
2022-08-31T06:05:00.258Z,65.20
2022-08-31T06:10:21.368Z,65.49
2022-08-31T06:15:44.061Z,65.08
2022-08-31T06:21:09.130Z,65.21
2022-08-31T06:26:33.874Z,65.11
2022-08-31T06:31:55.652Z,65.23
2022-08-31T06:37:19.193Z,65.34
2022-08-31T06:43:09.502Z,65.55
2022-08-31T06:48:53.491Z,65.30
2022-08-31T06:54:29.154Z,65.75
2022-08-31T07:00:10.926Z,65.73
2022-08-31T07:05:54.848Z,65.67
2022-08-31T07:11:25.767Z,65.39
2022-08-31T07:16:46.772Z,65.74
2022-08-31T07:22:09.524Z,66.06
2022-08-31T07:27:40.588Z,65.49
2022-08-31T07:33:06.284Z,65.80
2022-08-31T07:38:48.323Z,65.79
2022-08-31T07:44:11.367Z,65.93
2022-08-31T07:49:32.561Z,65.93
2022-08-31T07:55:07.968Z,65.96
2022-08-31T08:00:43.640Z,66.07
2022-08-31T08:06:08.738Z,66.06
2022-08-31T08:11:44.570Z,65.92
2022-08-31T08:17:28.657Z,66.04
2022-08-31T08:22:59.624Z,66.01
2022-08-31T08:28:40.258Z,65.91
2022-08-31T08:34:03.624Z,65.98
2022-08-31T08:39:25.394Z,66.08
2022-08-31T08:45:10.322Z,66.57
2022-08-31T08:50:31.230Z,66.11
2022-08-31T08:55:52.494Z,65.79
2022-08-31T09:01:27.836Z,66.21
2022-08-31T09:07:05.680Z,66.05
2022-08-31T09:12:38.492Z,65.99
2022-08-31T09:18:26.449Z,65.87
2022-08-31T09:24:02.078Z,66.12
2022-08-31T09:29:31.995Z,65.20
2022-08-31T09:35:20.739Z,65.68
2022-08-31T09:40:53.117Z,65.39
2022-08-31T09:46:35.179Z,65.61
2022-08-31T09:52:21.437Z,65.56
2022-08-31T09:58:11.568Z,65.82
2022-08-31T10:03:32.462Z,65.46
2022-08-31T10:09:00.199Z,65.49
2022-08-31T10:14:36.243Z,65.05
2022-08-31T10:20:06.527Z,65.19
2022-08-31T10:25:40.899Z,64.54
2022-08-31T10:31:21.414Z,64.01
2022-08-31T10:36:44.769Z,64.07
2022-08-31T10:42:14.545Z,64.06
2022-08-31T10:47:43.230Z,64.05
2022-08-31T10:53:53.530Z,63.33
2022-08-31T10:59:47.969Z,63.20
2022-08-31T11:05:33.294Z,62.79
2022-08-31T11:10:56.222Z,62.66
2022-08-31T11:16:17.729Z,62.93
2022-08-31T11:22:02.985Z,62.87
2022-08-31T11:27:28.432Z,62.36
2022-08-31T11:33:00.429Z,62.54
2022-08-31T11:38:48.865Z,62.41
2022-08-31T11:44:30.536Z,62.25
2022-08-31T11:49:55.894Z,62.27
2022-08-31T11:55:21.308Z,61.18
2022-08-31T12:01:00.134Z,61.29
2022-08-31T12:06:33.880Z,61.34
2022-08-31T12:12:17.327Z,61.54
2022-08-31T12:18:05.084Z,61.47
2022-08-31T12:23:53.698Z,61.58
2022-08-31T12:29:35.463Z,61.39
2022-08-31T12:34:56.103Z,61.33
2022-08-31T12:40:25.175Z,61.76
2022-08-31T12:46:03.178Z,61.50
2022-08-31T12:51:59.034Z,61.70
2022-08-31T12:57:27.119Z,61.49
2022-08-31T13:02:51.844Z,61.12
2022-08-31T13:08:21.583Z,61.22
2022-08-31T13:13:42.397Z,61.03
2022-08-31T13:19:05.866Z,60.66
2022-08-31T13:24:33.307Z,60.70
2022-08-31T13:29:57.234Z,61.15
2022-08-31T13:35:25.543Z,61.07
2022-08-31T13:40:51.360Z,60.91
2022-08-31T13:46:12.750Z,61.08
2022-08-31T13:51:39.597Z,60.74
2022-08-31T13:57:22.802Z,60.95
2022-08-31T14:02:44.902Z,61.08
2022-08-31T14:08:09.451Z,61.29
2022-08-31T14:13:35.416Z,61.11
2022-08-31T14:18:56.565Z,60.77
2022-08-31T14:24:17.241Z,60.62
2022-08-31T14:29:42.084Z,60.49
2022-08-31T14:35:11.226Z,59.57
2022-08-31T14:40:34.843Z,60.04
2022-08-31T14:45:55.525Z,59.79
2022-08-31T14:51:16.161Z,59.78
2022-08-31T14:56:45.421Z,59.64
2022-08-31T15:02:10.183Z,60.01
2022-08-31T15:07:34.784Z,59.63
2022-08-31T15:12:55.796Z,59.40
2022-08-31T15:18:24.462Z,59.59
2022-08-31T15:23:48.418Z,59.68
2022-08-31T15:29:11.979Z,59.94
2022-08-31T15:34:38.325Z,59.82
2022-08-31T15:40:02.262Z,59.82
2022-08-31T15:45:28.322Z,59.76
2022-08-31T15:50:53.766Z,59.96
2022-08-31T15:56:15.175Z,59.94
2022-08-31T16:01:37.713Z,60.26
2022-08-31T16:07:00.914Z,60.00
2022-08-31T16:12:23.410Z,60.14
2022-08-31T16:17:44.635Z,60.24
2022-08-31T16:23:07.741Z,60.53
2022-08-31T16:28:29.054Z,60.58
2022-08-31T16:33:49.959Z,60.44
2022-08-31T16:39:11.755Z,60.94
2022-08-31T16:44:36.635Z,60.83
2022-08-31T16:49:59.022Z,60.73
2022-08-31T16:55:19.820Z,61.07
2022-08-31T17:00:41.674Z,61.02
2022-08-31T17:06:03.591Z,61.24
2022-08-31T17:11:35.745Z,61.37
2022-08-31T17:16:56.619Z,61.06
2022-08-31T17:22:25.719Z,61.04
2022-08-31T17:27:48.081Z,60.88
2022-08-31T17:33:12.739Z,60.93
2022-08-31T17:38:33.295Z,60.60
2022-08-31T17:43:57.230Z,60.84
2022-08-31T17:49:21.307Z,60.65
2022-08-31T17:54:43.523Z,60.52
2022-08-31T18:00:05.665Z,60.44
2022-08-31T18:05:30.713Z,60.24
2022-08-31T18:10:53.315Z,60.42
2022-08-31T18:16:14.526Z,60.00
2022-08-31T18:21:36.653Z,60.21
2022-08-31T18:26:58.848Z,59.94
2022-08-31T18:32:20.125Z,59.92
2022-08-31T18:37:41.533Z,59.76
2022-08-31T18:43:21.257Z,59.70
2022-08-31T18:49:01.073Z,59.48
2022-08-31T18:54:33.536Z,59.50
2022-08-31T18:59:55.410Z,59.13
2022-08-31T19:05:16.473Z,59.36
2022-08-31T19:10:41.875Z,59.46
2022-08-31T19:16:14.801Z,59.55
2022-08-31T19:21:37.752Z,59.50
2022-08-31T19:27:00.343Z,59.58
2022-08-31T19:32:21.664Z,59.43
2022-08-31T19:37:44.305Z,59.33
2022-08-31T19:48:49.922Z,59.40
2022-08-31T19:54:12.556Z,59.64
2022-08-31T19:59:33.773Z,59.95
2022-08-31T20:04:57.423Z,59.66
2022-08-31T20:10:18.282Z,59.88
2022-08-31T20:15:45.032Z,60.02
2022-08-31T20:21:17.795Z,60.17
2022-08-31T20:26:47.183Z,59.92
2022-08-31T20:32:13.072Z,59.94
2022-08-31T20:37:33.659Z,60.02
2022-08-31T20:42:58.120Z,59.98
2022-08-31T20:48:37.326Z,60.08
2022-08-31T20:53:58.481Z,60.42
2022-08-31T20:59:23.471Z,60.09
2022-08-31T21:04:48.061Z,60.42
2022-08-31T21:10:09.587Z,60.36
2022-08-31T21:15:30.198Z,60.57
2022-08-31T21:20:52.095Z,60.80
2022-08-31T21:26:21.815Z,60.77
2022-08-31T21:31:49.830Z,60.74
2022-08-31T21:37:16.691Z,60.70
2022-08-31T21:42:37.467Z,60.86
2022-08-31T21:47:58.274Z,60.86
2022-08-31T21:53:19.131Z,60.76
2022-08-31T21:58:40.286Z,60.83
2022-08-31T22:04:02.091Z,60.83
2022-08-31T22:09:24.593Z,60.99
2022-08-31T22:14:45.255Z,61.03
2022-08-31T22:20:06.313Z,61.06
2022-08-31T22:25:27.952Z,61.49
2022-08-31T22:30:49.618Z,61.52
2022-08-31T22:36:31.673Z,61.31
2022-08-31T22:41:53.654Z,60.89
2022-08-31T22:47:14.248Z,60.86
2022-08-31T22:52:34.786Z,60.79
2022-08-31T22:57:55.539Z,60.90
2022-08-31T23:03:16.632Z,60.95
2022-08-31T23:08:38.446Z,61.04
2022-08-31T23:14:04.080Z,61.32
2022-08-31T23:19:36.991Z,61.39
2022-08-31T23:24:59.823Z,61.31
2022-08-31T23:30:22.564Z,61.21
2022-08-31T23:35:47.262Z,61.35
2022-08-31T23:41:13.690Z,61.16
2022-08-31T23:46:37.337Z,61.44
2022-08-31T23:51:57.822Z,61.61
2022-08-31T23:57:31.325Z,62.01
